Time;durP1;ratioP1;P1;durP2;ratioP2;P2;SDS_P1;SDS_P2;PMS_P1;PMS_P2;Temp;Humidity;BMP_temperature;BMP_pressure;BME280_temperature;BME280_humidity;BME280_pressure;Samples;Min_cycle;Max_cycle;Signal;HPM_P1;HPM_P2
2024/02/09 00:03:57;;;;;;;;;;;;;;;17.05;45.93;97103.53;10244692;28;778;-67
2024/02/09 00:08:52;;;;;;;;;;;;;;;17.04;46.01;97096.59;10243798;28;1951;-67
2024/02/09 00:13:48;;;;;;;;;;;;;;;17.02;46.05;97085.38;10244719;28;783;-67
2024/02/09 00:18:44;;;;;;;;;;;;;;;17.04;45.81;97083.44;10243797;28;850;-67
2024/02/09 00:23:40;;;;;;;;;;;;;;;17.02;45.86;97073.03;10243711;28;873;-67
2024/02/09 00:28:36;;;;;;;;;;;;;;;17.02;45.95;97077.47;10244178;28;1894;-67
2024/02/09 00:33:32;;;;;;;;;;;;;;;17.01;45.91;97081.06;10244511;28;1368;-67
2024/02/09 00:38:29;;;;;;;;;;;;;;;17.00;46.04;97082.00;10243443;28;799;-67
2024/02/09 00:43:24;;;;;;;;;;;;;;;17.01;45.79;97070.56;10242690;28;957;-67
2024/02/09 00:48:20;;;;;;;;;;;;;;;16.99;45.81;97065.41;10243208;28;1915;-67
2024/02/09 00:53:16;;;;;;;;;;;;;;;17.01;45.80;97060.03;10243144;28;791;-68
2024/02/09 00:58:12;;;;;;;;;;;;;;;16.98;45.93;97050.59;10244021;28;881;-67
2024/02/09 01:03:10;;;;;;;;;;;;;;;16.99;46.00;97036.44;10243059;28;805;-67
2024/02/09 01:08:06;;;;;;;;;;;;;;;16.99;46.04;97038.25;10242840;28;1955;-67
2024/02/09 02:47:08;;;;;;;;;;;;;;;16.92;45.74;96882.69;10246585;28;930;-67
2024/02/09 03:07:48;;;;;;;;;;;;;;;16.92;45.85;96852.91;10245952;28;1878;-67
2024/02/09 03:12:44;;;;;;;;;;;;;;;16.90;45.80;96842.53;10246608;28;965;-67
2024/02/09 03:17:40;;;;;;;;;;;;;;;16.91;45.88;96846.00;10245525;28;791;-67
2024/02/09 03:22:36;;;;;;;;;;;;;;;16.91;46.03;96843.38;10245363;28;805;-67
2024/02/09 03:27:32;;;;;;;;;;;;;;;16.89;45.93;96832.97;10245712;28;1963;-67
2024/02/09 03:32:28;;;;;;;;;;;;;;;16.89;45.89;96830.34;10245350;28;1315;-67
2024/02/09 03:37:29;;;;;;;;;;;;;;;16.89;45.79;96816.34;10244936;28;883;-67
2024/02/09 03:42:25;;;;;;;;;;;;;;;16.90;45.98;96813.59;10245260;28;838;-67
2024/02/09 03:47:24;;;;;;;;;;;;;;;16.89;45.93;96804.03;10244437;28;1918;-67
2024/02/09 03:52:20;;;;;;;;;;;;;;;16.89;45.76;96800.56;10244384;28;974;-67
2024/02/09 03:57:16;;;;;;;;;;;;;;;16.89;45.96;96805.84;10244298;28;946;-67
2024/02/09 04:02:12;;;;;;;;;;;;;;;16.89;45.76;96797.94;10243567;28;1013;-67
2024/02/09 04:07:10;;;;;;;;;;;;;;;16.89;45.99;96797.94;10244686;28;863;-67
2024/02/09 04:12:08;;;;;;;;;;;;;;;16.88;45.78;96801.56;10243850;28;1963;-67
2024/02/09 04:17:07;;;;;;;;;;;;;;;16.87;45.81;96792.81;10244748;28;871;-67
2024/02/09 04:22:05;;;;;;;;;;;;;;;16.88;45.82;96791.03;10244046;28;803;-67
2024/02/09 04:27:02;;;;;;;;;;;;;;;16.87;45.77;96782.28;10243715;28;1021;-67
2024/02/09 04:31:58;;;;;;;;;;;;;;;16.88;45.93;96791.03;10243130;28;1961;-67
2024/02/09 04:36:55;;;;;;;;;;;;;;;16.86;45.82;96786.72;10244094;28;811;-67
2024/02/09 04:41:51;;;;;;;;;;;;;;;16.87;45.82;96779.66;10243487;28;787;-67
2024/02/09 04:46:48;;;;;;;;;;;;;;;16.88;45.92;96770.81;10243875;28;803;-67
2024/02/09 04:51:43;;;;;;;;;;;;;;;16.88;45.80;96776.06;10243203;28;1917;-67
2024/02/09 04:56:39;;;;;;;;;;;;;;;16.88;45.82;96768.19;10247356;28;925;-67
2024/02/09 05:01:38;;;;;;;;;;;;;;;16.91;45.91;96757.38;10251756;28;817;-67
2024/02/09 05:06:34;;;;;;;;;;;;;;;16.93;45.87;96759.88;10250565;28;907;-67
2024/02/09 05:11:29;;;;;;;;;;;;;;;16.95;45.91;96745.63;10250265;28;1902;-67
2024/02/09 05:16:25;;;;;;;;;;;;;;;16.97;45.82;96753.38;10250216;28;774;-67
2024/02/09 05:21:21;;;;;;;;;;;;;;;16.99;45.71;96740.94;10250013;28;879;-67
2024/02/09 05:26:17;;;;;;;;;;;;;;;17.01;45.68;96739.00;10249233;28;917;-67
2024/02/09 05:31:13;;;;;;;;;;;;;;;17.02;45.73;96738.84;10249726;28;1898;-67
2024/02/09 05:36:09;;;;;;;;;;;;;;;17.03;45.73;96729.19;10249535;28;852;-68
2024/02/09 05:41:05;;;;;;;;;;;;;;;17.04;45.89;96731.66;10248666;28;873;-68
2024/02/09 05:46:01;;;;;;;;;;;;;;;17.08;45.78;96735.69;10249670;28;857;-67
2024/02/09 05:50:57;;;;;;;;;;;;;;;17.08;45.62;96730.44;10249584;28;1922;-67
2024/02/09 05:55:52;;;;;;;;;;;;;;;17.11;45.58;96728.47;10248708;28;862;-68
2024/02/09 06:00:48;;;;;;;;;;;;;;;17.11;45.65;96731.97;10249187;28;989;-67
2024/02/09 06:05:45;;;;;;;;;;;;;;;17.12;45.74;96725.72;10247375;28;840;-67
2024/02/09 06:10:41;;;;;;;;;;;;;;;17.14;45.73;96718.53;10247269;28;1897;-69
2024/02/09 06:15:37;;;;;;;;;;;;;;;17.15;45.59;96724.63;10247917;28;879;-67
2024/02/09 06:20:33;;;;;;;;;;;;;;;17.15;46.01;96740.41;10248226;28;1720;-68
2024/02/09 06:25:30;;;;;;;;;;;;;;;17.15;45.67;96741.22;10247531;28;966;-67
2024/02/09 06:30:26;;;;;;;;;;;;;;;17.16;45.69;96750.81;10247375;28;1931;-68
2024/02/09 06:35:22;;;;;;;;;;;;;;;17.17;45.78;96754.28;10246650;28;1087;-67
2024/02/09 06:40:19;;;;;;;;;;;;;;;17.17;45.71;96749.00;10247634;28;877;-68
2024/02/09 06:45:16;;;;;;;;;;;;;;;17.18;45.64;96745.41;10247540;28;875;-71
2024/02/09 06:50:12;;;;;;;;;;;;;;;17.19;45.71;96745.28;10246468;28;1977;-68
2024/02/09 06:55:11;;;;;;;;;;;;;;;17.19;45.76;96747.06;10247031;28;854;-68
2024/02/09 07:00:08;;;;;;;;;;;;;;;17.20;45.90;96731.13;10246220;28;876;-67
2024/02/09 07:05:07;;;;;;;;;;;;;;;17.21;45.74;96740.72;10246590;28;925;-67
2024/02/09 07:10:02;;;;;;;;;;;;;;;17.20;45.83;96736.41;10246792;28;1953;-68
2024/02/09 07:14:58;;;;;;;;;;;;;;;17.18;45.99;96722.53;10246486;28;868;-68
2024/02/09 07:19:54;;;;;;;;;;;;;;;17.20;45.90;96722.41;10245730;28;962;-69
2024/02/09 07:24:50;;;;;;;;;;;;;;;17.18;45.82;96714.63;10245909;28;934;-68
2024/02/09 07:29:46;;;;;;;;;;;;;;;17.15;46.10;96725.44;10245040;28;1898;-67
2024/02/09 07:34:42;;;;;;;;;;;;;;;17.15;45.98;96719.34;10245553;28;820;-67
2024/02/09 07:39:38;;;;;;;;;;;;;;;17.14;46.00;96729.06;10244843;28;939;-68
2024/02/09 07:44:36;;;;;;;;;;;;;;;17.13;46.00;96727.38;10246019;28;888;-68
2024/02/09 07:49:32;;;;;;;;;;;;;;;17.11;45.96;96715.31;10244427;28;1914;-67
2024/02/09 07:54:28;;;;;;;;;;;;;;;17.14;46.11;96728.22;10244398;28;796;-68
2024/02/09 07:59:24;;;;;;;;;;;;;;;17.12;46.17;96733.63;10244866;28;856;-67
2024/02/09 08:04:20;;;;;;;;;;;;;;;17.14;46.13;96734.31;10244174;28;847;-67
2024/02/09 08:09:16;;;;;;;;;;;;;;;17.14;46.19;96729.06;10243796;28;1898;-67
2024/02/09 08:14:12;;;;;;;;;;;;;;;17.16;46.08;96737.66;10243991;28;764;-67
2024/02/09 08:19:09;;;;;;;;;;;;;;;17.16;46.17;96724.50;10243841;28;877;-67
2024/02/09 08:24:05;;;;;;;;;;;;;;;17.18;46.03;96734.88;10243763;28;978;-67
2024/02/09 08:29:01;;;;;;;;;;;;;;;17.19;46.03;96729.47;10242834;28;1957;-67
2024/02/09 08:33:57;;;;;;;;;;;;;;;17.20;45.95;96731.13;10251366;28;735;-67
2024/02/09 08:38:53;;;;;;;;;;;;;;;17.21;46.02;96734.59;10252229;28;913;-67
2024/02/09 08:43:49;;;;;;;;;;;;;;;17.22;46.04;96737.09;10251517;28;886;-67
2024/02/09 08:48:45;;;;;;;;;;;;;;;17.25;46.02;96741.25;10251270;28;1976;-67
2024/02/09 08:53:42;;;;;;;;;;;;;;;17.25;45.92;96736.81;10251129;28;802;-67
2024/02/09 08:58:38;;;;;;;;;;;;;;;17.25;45.95;96742.09;10250986;28;796;-67
2024/02/09 09:03:35;;;;;;;;;;;;;;;17.26;46.08;96737.66;10251345;28;783;-67
2024/02/09 09:08:30;;;;;;;;;;;;;;;17.27;45.94;96734.06;10251085;28;1906;-67
2024/02/09 09:13:26;;;;;;;;;;;;;;;17.28;46.02;96731.28;10249800;28;880;-67
2024/02/09 09:18:22;;;;;;;;;;;;;;;17.28;46.02;96747.06;10250151;28;822;-67
2024/02/09 09:23:18;;;;;;;;;;;;;;;17.28;46.02;96747.06;10250660;28;977;-67
2024/02/09 09:28:17;;;;;;;;;;;;;;;17.28;45.90;96735.72;10249345;28;1894;-68
2024/02/09 09:33:13;;;;;;;;;;;;;;;17.29;45.87;96738.22;10249106;28;1259;-70
2024/02/09 09:38:10;;;;;;;;;;;;;;;17.30;46.13;96718.00;10249445;28;965;-68
2024/02/09 09:43:06;;;;;;;;;;;;;;;17.31;45.82;96715.19;10248946;28;834;-70
2024/02/09 09:48:02;;;;;;;;;;;;;;;17.33;46.29;96727.41;10248927;28;1946;-68
2024/02/09 09:52:57;;;;;;;;;;;;;;;17.33;46.13;96722.16;10249404;28;858;-67
2024/02/09 09:57:53;;;;;;;;;;;;;;;17.35;46.17;96736.00;10248686;28;881;-68
2024/02/09 10:02:49;;;;;;;;;;;;;;;17.37;46.05;96728.78;10248720;28;862;-68
2024/02/09 10:07:45;;;;;;;;;;;;;;;17.39;46.14;96737.38;10248272;28;1961;-67
2024/02/09 10:12:41;;;;;;;;;;;;;;;17.40;46.14;96741.69;10248081;28;952;-67
2024/02/09 10:17:39;;;;;;;;;;;;;;;17.41;46.27;96738.09;10248021;28;806;-69
2024/02/09 10:22:36;;;;;;;;;;;;;;;17.42;46.11;96737.09;10247778;28;919;-68
2024/02/09 10:27:33;;;;;;;;;;;;;;;17.43;46.33;96729.09;10248144;28;1894;-68
2024/02/09 10:32:32;;;;;;;;;;;;;;;17.43;46.19;96713.28;10246468;28;1333;-67
2024/02/09 10:37:28;;;;;;;;;;;;;;;17.46;46.08;96722.72;10246439;28;807;-67
2024/02/09 10:42:23;;;;;;;;;;;;;;;17.47;46.09;96724.38;10246410;28;868;-67
2024/02/09 10:47:19;;;;;;;;;;;;;;;17.48;46.01;96731.31;10246476;28;833;-67
2024/02/09 10:52:17;;;;;;;;;;;;;;;17.49;46.28;96727.69;10246251;28;1977;-67
2024/02/09 10:57:13;;;;;;;;;;;;;;;17.49;46.26;96732.97;10245881;28;806;-67
2024/02/09 11:02:09;;;;;;;;;;;;;;;17.47;46.28;96741.00;10243942;28;1819;-67
2024/02/09 11:07:05;;;;;;;;;;;;;;;17.49;46.37;96757.50;10244083;28;938;-68
2024/02/09 11:12:04;;;;;;;;;;;;;;;17.48;46.39;96753.19;10245277;28;1948;-68
2024/02/09 11:17:00;;;;;;;;;;;;;;;17.51;46.26;96752.94;10246044;28;838;-68
2024/02/09 11:22:00;;;;;;;;;;;;;;;17.52;46.24;96761.66;10245222;28;880;-68
2024/02/09 11:26:56;;;;;;;;;;;;;;;17.52;46.19;96761.66;10244381;28;998;-68
2024/02/09 11:32:13;;;;;;;;;;;;;;;17.53;46.26;96761.53;10245260;28;1898;-68
2024/02/09 11:37:08;;;;;;;;;;;;;;;17.52;46.31;96759.84;10244423;28;1445;-67
2024/02/09 11:42:06;;;;;;;;;;;;;;;17.55;46.46;96764.00;10244551;28;808;-68
2024/02/09 11:47:02;;;;;;;;;;;;;;;17.55;46.39;96757.91;10243692;28;1179;-68
2024/02/09 11:51:58;;;;;;;;;;;;;;;17.57;46.27;96764.72;10244159;28;1967;-67
2024/02/09 11:56:57;;;;;;;;;;;;;;;17.57;46.42;96754.16;10243422;28;1751;-67
2024/02/09 12:01:53;;;;;;;;;;;;;;;17.53;46.44;96766.78;10205049;28;1547;-67
2024/02/09 12:06:49;;;;;;;;;;;;;;;17.54;46.36;96772.88;10203680;28;849;-68
2024/02/09 12:11:46;;;;;;;;;;;;;;;17.57;46.42;96761.25;10203804;28;1890;-68
2024/02/09 12:16:42;;;;;;;;;;;;;;;17.57;46.51;96759.44;10203397;28;1039;-67
2024/02/09 12:21:38;;;;;;;;;;;;;;;17.55;46.36;96753.47;10204084;28;933;-67
2024/02/09 12:26:37;;;;;;;;;;;;;;;17.56;46.40;96760.41;10203778;28;774;-68
2024/02/09 12:31:32;;;;;;;;;;;;;;;17.58;46.30;96762.91;10206137;28;1902;-68
2024/02/09 12:36:28;;;;;;;;;;;;;;;17.58;46.25;96768.16;10243151;28;755;-67
2024/02/09 12:41:24;;;;;;;;;;;;;;;17.60;46.35;96771.50;10244077;28;917;-67
2024/02/09 12:46:20;;;;;;;;;;;;;;;17.64;46.40;96768.47;10243377;28;823;-68
2024/02/09 12:51:16;;;;;;;;;;;;;;;17.70;46.02;96772.34;10243240;28;1973;-67
2024/02/09 12:56:12;;;;;;;;;;;;;;;17.72;46.33;96765.97;10240592;28;1105;-67
2024/02/09 13:01:08;;;;;;;;;;;;;;;17.68;46.14;96771.63;10242054;28;1867;-68
2024/02/09 13:06:04;;;;;;;;;;;;;;;17.68;46.24;96784.81;10242607;28;885;-67
2024/02/09 13:11:00;;;;;;;;;;;;;;;17.68;46.31;96793.56;10241948;28;1898;-68
2024/02/09 13:15:56;;;;;;;;;;;;;;;17.68;46.34;96793.56;10243405;28;822;-67
2024/02/09 13:20:52;;;;;;;;;;;;;;;17.68;46.20;96790.94;10250486;28;870;-67
2024/02/09 13:25:48;;;;;;;;;;;;;;;17.68;46.20;96792.72;10249556;28;790;-67
2024/02/09 13:30:44;;;;;;;;;;;;;;;17.68;46.33;96777.75;10249155;28;1914;-68
2024/02/09 13:35:40;;;;;;;;;;;;;;;17.67;46.24;96788.41;10249576;28;793;-67
2024/02/09 13:40:37;;;;;;;;;;;;;;;17.66;46.27;96787.59;10248879;28;965;-67
2024/02/09 13:45:33;;;;;;;;;;;;;;;17.68;46.54;96797.97;10248387;28;943;-67
2024/02/09 13:50:29;;;;;;;;;;;;;;;17.67;46.31;96791.88;10248463;28;1969;-67
2024/02/09 13:55:25;;;;;;;;;;;;;;;17.67;46.34;96783.16;10248938;28;918;-68
2024/02/09 14:00:24;;;;;;;;;;;;;;;17.67;46.47;96775.25;10248598;28;775;-67
2024/02/09 14:05:21;;;;;;;;;;;;;;;17.67;46.57;96778.72;10248312;28;785;-67
2024/02/09 14:10:17;;;;;;;;;;;;;;;17.66;46.42;96784.97;10248040;28;1951;-68
2024/02/09 14:15:13;;;;;;;;;;;;;;;17.68;46.36;96788.28;10248495;28;909;-67
2024/02/09 14:20:09;;;;;;;;;;;;;;;17.67;46.33;96789.25;10247664;28;908;-67
2024/02/09 14:25:05;;;;;;;;;;;;;;;17.69;46.63;96786.50;10247512;28;926;-67
2024/02/09 14:30:00;;;;;;;;;;;;;;;17.66;46.39;96782.31;10246667;28;1951;-67
2024/02/09 14:34:56;;;;;;;;;;;;;;;17.68;46.38;96783.03;10246559;28;888;-67
2024/02/09 14:39:53;;;;;;;;;;;;;;;17.67;46.37;96777.88;10246308;28;870;-67
2024/02/09 14:44:49;;;;;;;;;;;;;;;17.68;46.48;96785.66;10247613;28;866;-67
2024/02/09 14:49:45;;;;;;;;;;;;;;;17.69;46.51;96783.84;10247039;28;1917;-67
2024/02/09 14:54:41;;;;;;;;;;;;;;;17.69;46.40;96781.22;10246359;28;889;-67
2024/02/09 14:59:37;;;;;;;;;;;;;;;17.67;46.63;96781.34;10246120;28;921;-67
2024/02/09 15:04:39;;;;;;;;;;;;;;;17.67;46.61;96778.72;10245378;28;809;-67
2024/02/09 15:09:35;;;;;;;;;;;;;;;17.69;46.42;96782.06;10245738;28;1961;-67
2024/02/09 15:14:31;;;;;;;;;;;;;;;17.68;46.49;96780.41;10245590;28;844;-67
2024/02/09 15:19:27;;;;;;;;;;;;;;;17.67;46.41;96770.81;10245424;28;903;-67
2024/02/09 15:24:23;;;;;;;;;;;;;;;17.70;46.28;96772.34;10245200;28;772;-67
2024/02/09 15:29:19;;;;;;;;;;;;;;;17.70;46.42;96767.91;10244732;28;1949;-67
2024/02/09 15:34:15;;;;;;;;;;;;;;;17.69;46.46;96775.94;10244434;28;1305;-67
2024/02/09 15:39:14;;;;;;;;;;;;;;;17.69;46.53;96768.88;10244416;28;910;-67
2024/02/09 15:44:10;;;;;;;;;;;;;;;17.71;46.38;96760.81;10245207;28;865;-67
2024/02/09 15:49:06;;;;;;;;;;;;;;;17.69;46.33;96774.16;10245035;28;1906;-67
2024/02/09 15:54:02;;;;;;;;;;;;;;;17.70;46.46;96762.63;10244264;28;786;-67
2024/02/09 15:58:58;;;;;;;;;;;;;;;17.72;46.38;96770.41;10244243;28;775;-67
2024/02/09 16:03:58;;;;;;;;;;;;;;;17.71;46.34;96766.94;10244077;28;866;-67
2024/02/09 16:08:54;;;;;;;;;;;;;;;17.71;46.50;96779.25;10243827;28;1894;-67
2024/02/09 16:13:50;;;;;;;;;;;;;;;17.71;46.49;96777.47;10244374;28;825;-67
2024/02/09 16:18:46;;;;;;;;;;;;;;;17.72;46.52;96786.22;10243717;28;784;-68
2024/02/09 16:23:42;;;;;;;;;;;;;;;17.71;46.52;96776.63;10243589;28;880;-67
2024/02/09 16:28:38;;;;;;;;;;;;;;;17.72;46.54;96775.66;10243522;28;1898;-67
2024/02/09 16:33:36;;;;;;;;;;;;;;;17.71;46.53;96771.34;10244055;28;1455;-68
2024/02/09 16:38:32;;;;;;;;;;;;;;;17.68;46.38;96769.88;10243793;28;833;-67
2024/02/09 16:43:28;;;;;;;;;;;;;;;17.66;46.50;96777.06;10242619;28;1004;-67
2024/02/09 16:48:23;;;;;;;;;;;;;;;17.65;46.52;96777.19;10244217;28;1975;-67
2024/02/09 16:53:20;;;;;;;;;;;;;;;17.65;46.66;96771.91;10247862;28;814;-68
2024/02/09 16:58:16;;;;;;;;;;;;;;;17.63;46.66;96766.81;10251564;28;935;-67
2024/02/09 17:03:12;;;;;;;;;;;;;;;17.65;46.64;96774.56;10250628;28;964;-67
2024/02/09 17:08:08;;;;;;;;;;;;;;;17.64;46.59;96768.47;10250992;28;1894;-67
2024/02/09 17:13:04;;;;;;;;;;;;;;;17.64;46.65;96776.34;10250261;28;790;-67
2024/02/09 17:18:00;;;;;;;;;;;;;;;17.66;46.50;96768.34;10250063;28;869;-67
2024/02/09 17:22:56;;;;;;;;;;;;;;;17.64;46.43;96771.09;10249828;28;885;-67
2024/02/09 17:27:52;;;;;;;;;;;;;;;17.67;46.47;96770.81;10249652;28;1898;-67
2024/02/09 17:32:48;;;;;;;;;;;;;;;17.68;46.48;96775.13;10249675;28;1274;-67
2024/02/09 17:37:44;;;;;;;;;;;;;;;17.65;46.52;96772.75;10249647;28;901;-67
2024/02/09 17:42:41;;;;;;;;;;;;;;;17.69;46.57;96771.50;10248628;28;945;-67
2024/02/09 17:47:37;;;;;;;;;;;;;;;17.68;46.53;96777.75;10249044;28;865;-67
2024/02/09 17:52:33;;;;;;;;;;;;;;;17.68;46.40;96780.41;10248784;28;2028;-67
2024/02/09 17:57:29;;;;;;;;;;;;;;;17.69;46.41;96781.22;10248602;28;873;-67
2024/02/09 18:02:25;;;;;;;;;;;;;;;17.71;46.62;96800.34;10248280;28;780;-67
2024/02/09 18:07:21;;;;;;;;;;;;;;;17.71;46.29;96795.91;10248810;28;791;-68
2024/02/09 18:12:17;;;;;;;;;;;;;;;17.74;46.47;96797.44;10248602;28;1959;-67
2024/02/09 18:17:13;;;;;;;;;;;;;;;17.74;46.23;96798.28;10247865;28;782;-67
2024/02/09 18:22:11;;;;;;;;;;;;;;;17.73;46.41;96799.22;10248283;28;854;-67
2024/02/09 18:27:07;;;;;;;;;;;;;;;17.72;46.47;96800.22;10248007;28;959;-67
2024/02/09 18:32:03;;;;;;;;;;;;;;;17.77;46.39;96804.25;10247350;28;1947;-67
2024/02/09 18:36:59;;;;;;;;;;;;;;;17.75;46.33;96797.28;10247675;28;983;-67
2024/02/09 18:41:57;;;;;;;;;;;;;;;17.75;46.22;96797.28;10246974;28;811;-67
2024/02/09 18:46:54;;;;;;;;;;;;;;;17.77;46.45;96806.88;10245968;28;916;-67
2024/02/09 18:51:51;;;;;;;;;;;;;;;17.77;46.43;96797.16;10246543;28;1906;-67
2024/02/09 18:56:47;;;;;;;;;;;;;;;17.78;46.30;96800.63;10246342;28;921;-67
2024/02/09 19:01:43;;;;;;;;;;;;;;;17.79;46.38;96791.75;10247168;28;878;-67
2024/02/09 19:06:39;;;;;;;;;;;;;;;17.77;46.21;96791.91;10246468;28;874;-67
2024/02/09 19:11:36;;;;;;;;;;;;;;;17.81;46.27;96795.09;10245666;28;1898;-67
2024/02/09 19:16:33;;;;;;;;;;;;;;;17.80;46.09;96790.81;10245590;28;918;-67
2024/02/09 19:21:29;;;;;;;;;;;;;;;17.80;46.28;96794.28;10245950;28;876;-68
2024/02/09 19:26:25;;;;;;;;;;;;;;;17.80;46.21;96786.38;10245800;28;842;-67
2024/02/09 19:31:21;;;;;;;;;;;;;;;17.82;46.42;96796.78;10245126;28;1967;-68
2024/02/09 19:36:19;;;;;;;;;;;;;;;17.84;46.26;96797.47;10245462;28;1577;-67
2024/02/09 19:41:17;;;;;;;;;;;;;;;17.83;46.10;96799.28;10244690;28;976;-67
2024/02/09 19:46:13;;;;;;;;;;;;;;;17.85;46.12;96791.25;10245149;28;862;-67
2024/02/09 19:51:09;;;;;;;;;;;;;;;17.85;46.25;96793.88;10244350;28;1914;-67
2024/02/09 19:56:04;;;;;;;;;;;;;;;17.85;46.21;96801.78;10244268;28;879;-67
2024/02/09 20:01:03;;;;;;;;;;;;;;;17.86;46.38;96790.25;10244128;28;853;-67
2024/02/09 20:06:02;;;;;;;;;;;;;;;17.87;46.35;96784.84;10243947;28;944;-67
2024/02/09 20:10:59;;;;;;;;;;;;;;;17.88;46.32;96783.06;10243857;28;1898;-67
2024/02/09 20:15:58;;;;;;;;;;;;;;;17.87;46.38;96787.50;10243728;28;880;-67
2024/02/09 20:20:55;;;;;;;;;;;;;;;17.89;46.45;96792.59;10244894;28;811;-67
2024/02/09 20:25:51;;;;;;;;;;;;;;;17.90;46.54;96791.66;10245123;28;767;-67
2024/02/09 20:30:48;;;;;;;;;;;;;;;17.90;46.10;96789.84;10251697;28;1898;-67
2024/02/09 20:35:45;;;;;;;;;;;;;;;17.89;46.30;96784.69;10252337;28;898;-67
2024/02/09 20:40:41;;;;;;;;;;;;;;;17.90;46.40;96789.03;10252125;28;869;-67
2024/02/09 20:45:38;;;;;;;;;;;;;;;17.87;46.21;96790.13;10251406;28;929;-67
2024/02/09 20:50:37;;;;;;;;;;;;;;;17.89;46.38;96792.59;10251620;28;1914;-67
2024/02/09 20:55:34;;;;;;;;;;;;;;;17.89;46.39;96795.25;10251659;28;869;-68
2024/02/09 21:00:33;;;;;;;;;;;;;;;17.88;46.07;96788.31;10250771;28;918;-68
2024/02/09 21:05:34;;;;;;;;;;;;;;;17.87;46.21;96792.75;10251116;28;882;-67
2024/02/09 21:10:30;;;;;;;;;;;;;;;17.89;46.39;96795.25;10249791;28;1897;-67
2024/02/09 21:15:26;;;;;;;;;;;;;;;17.88;46.39;96790.97;10250239;28;819;-67
2024/02/09 21:20:22;;;;;;;;;;;;;;;17.88;46.29;96798.88;10250031;28;978;-68
2024/02/09 21:25:19;;;;;;;;;;;;;;;17.87;46.39;96794.56;10250458;28;864;-67
2024/02/09 21:30:15;;;;;;;;;;;;;;;17.88;46.08;96797.06;10249709;28;1898;-67
2024/02/09 21:35:11;;;;;;;;;;;;;;;17.87;46.29;96790.13;10249921;28;932;-67
2024/02/09 21:40:09;;;;;;;;;;;;;;;17.88;46.25;96789.16;10248780;28;883;-68
2024/02/09 21:45:05;;;;;;;;;;;;;;;17.87;46.24;96778.75;10249891;28;863;-68
2024/02/09 21:50:01;;;;;;;;;;;;;;;17.85;46.24;96785.97;10249738;28;1918;-67
2024/02/09 21:54:57;;;;;;;;;;;;;;;17.84;46.38;96790.41;10249023;28;860;-67
2024/02/09 21:59:53;;;;;;;;;;;;;;;17.84;46.39;96794.81;10249407;28;824;-67
2024/02/09 22:04:51;;;;;;;;;;;;;;;17.81;46.21;96795.94;10247970;28;852;-67
2024/02/09 22:09:48;;;;;;;;;;;;;;;17.80;46.17;96794.28;10249005;28;1906;-67
2024/02/09 22:14:45;;;;;;;;;;;;;;;17.78;46.15;96793.53;10248841;28;847;-67
2024/02/09 22:19:42;;;;;;;;;;;;;;;17.75;46.37;96797.28;10248670;28;882;-67
2024/02/09 22:24:39;;;;;;;;;;;;;;;17.74;46.31;96798.28;10248776;28;840;-67
2024/02/09 22:29:35;;;;;;;;;;;;;;;17.73;46.24;96803.66;10247939;28;1888;-67
2024/02/09 22:34:31;;;;;;;;;;;;;;;17.70;46.25;96804.78;10247881;28;898;-67
2024/02/09 22:39:27;;;;;;;;;;;;;;;17.69;46.39;96807.56;10247968;28;802;-67
2024/02/09 22:44:23;;;;;;;;;;;;;;;17.66;46.49;96807.84;10247068;28;1008;-67
2024/02/09 22:49:20;;;;;;;;;;;;;;;17.65;46.35;96809.63;10245938;28;1981;-67
2024/02/09 22:54:16;;;;;;;;;;;;;;;17.63;46.36;96813.34;10246997;28;905;-67
2024/02/09 22:59:11;;;;;;;;;;;;;;;17.60;46.38;96814.47;10247359;28;806;-67
2024/02/09 23:04:08;;;;;;;;;;;;;;;17.59;46.46;96817.25;10246213;28;925;-67
2024/02/09 23:09:04;;;;;;;;;;;;;;;17.56;46.27;96818.34;10245484;28;1981;-67
2024/02/09 23:14:00;;;;;;;;;;;;;;;17.55;46.42;96815.84;10246529;28;867;-67
2024/02/09 23:18:57;;;;;;;;;;;;;;;17.51;46.41;96823.19;10246414;28;830;-67
2024/02/09 23:23:54;;;;;;;;;;;;;;;17.50;46.34;96822.38;10245731;28;979;-67
2024/02/09 23:28:50;;;;;;;;;;;;;;;17.49;46.27;96827.75;10245228;28;1921;-67
2024/02/09 23:33:46;;;;;;;;;;;;;;;17.45;46.52;96832.47;10246780;28;1159;-67
2024/02/09 23:38:42;;;;;;;;;;;;;;;17.45;46.49;96842.19;10245025;28;909;-67
2024/02/09 23:43:38;;;;;;;;;;;;;;;17.43;46.32;96836.22;10246021;28;895;-67
2024/02/09 23:48:38;;;;;;;;;;;;;;;17.43;46.46;96844.13;10245432;28;1918;-67
2024/02/09 23:53:34;;;;;;;;;;;;;;;17.40;46.52;96842.59;10245259;28;795;-67
2024/02/09 23:58:31;;;;;;;;;;;;;;;17.39;46.31;96850.59;10245073;28;828;-67
